createdAt,value
2019-03-13T00:04:51.835Z,57.99
2019-03-13T00:07:24.021Z,57.99
2019-03-13T00:09:56.227Z,57.03
2019-03-13T00:12:28.513Z,56.36
2019-03-13T00:15:00.724Z,54.46
2019-03-13T00:17:32.901Z,53.09
2019-03-13T00:23:41.267Z,51.11
2019-03-13T00:26:15.450Z,52.92
2019-03-13T00:28:47.433Z,54.08
2019-03-13T00:31:19.404Z,56.71
2019-03-13T00:33:51.326Z,57.72
2019-03-13T00:36:23.253Z,58.76
2019-03-13T00:38:55.172Z,58.57
2019-03-13T00:41:27.146Z,61.17
2019-03-13T00:43:59.112Z,64.71
2019-03-13T00:47:11.927Z,64.75
2019-03-13T00:49:43.845Z,64.97
2019-03-13T00:52:17.580Z,65.30
2019-03-13T00:54:49.534Z,64.56
2019-03-13T00:57:42.738Z,64.20
2019-03-13T01:00:22.827Z,64.34
2019-03-13T01:03:57.337Z,63.33
2019-03-13T01:06:34.918Z,63.48
2019-03-13T01:09:06.891Z,62.98
2019-03-13T01:11:38.904Z,62.75
2019-03-13T01:14:10.929Z,61.56
2019-03-13T01:16:42.900Z,61.28
2019-03-13T01:19:14.881Z,61.11
2019-03-13T01:21:46.843Z,60.81
2019-03-13T01:24:21.004Z,61.52
2019-03-13T01:27:00.548Z,61.71
2019-03-13T01:29:32.582Z,62.03
2019-03-13T01:32:22.735Z,62.57
2019-03-13T01:35:23.577Z,62.45
2019-03-13T01:37:55.640Z,61.97
2019-03-13T01:40:27.824Z,62.23
2019-03-13T01:43:01.988Z,61.61
2019-03-13T01:45:34.001Z,62.25
2019-03-13T01:48:08.060Z,62.98
2019-03-13T01:50:41.903Z,63.07
2019-03-13T01:53:13.920Z,64.33
2019-03-13T01:55:45.879Z,65.06
2019-03-13T01:58:20.626Z,65.62
2019-03-13T02:00:52.575Z,66.33
2019-03-13T02:03:24.531Z,66.63
2019-03-13T02:05:56.472Z,65.98
2019-03-13T02:08:29.850Z,65.01
2019-03-13T02:11:01.857Z,66.25
2019-03-13T02:13:40.893Z,65.20
2019-03-13T02:16:14.778Z,65.65
2019-03-13T02:18:49.214Z,65.73
2019-03-13T02:21:23.230Z,64.87
2019-03-13T02:23:57.576Z,63.84
2019-03-13T02:26:31.819Z,64.19
2019-03-13T02:29:05.088Z,63.57
2019-03-13T02:31:41.302Z,63.45
2019-03-13T02:34:16.205Z,63.37
2019-03-13T02:36:50.075Z,63.28
2019-03-13T02:39:22.122Z,62.74
2019-03-13T02:41:56.497Z,63.04
2019-03-13T02:44:30.574Z,62.91
2019-03-13T02:47:04.456Z,62.29
2019-03-13T02:49:39.885Z,62.37
2019-03-13T02:52:13.983Z,63.02
2019-03-13T02:54:45.948Z,62.58
2019-03-13T02:57:17.900Z,63.22
2019-03-13T02:59:51.701Z,63.26
2019-03-13T03:02:31.156Z,63.87
2019-03-13T03:05:04.022Z,64.23
2019-03-13T03:07:38.949Z,63.34
2019-03-13T03:10:11.215Z,63.48
2019-03-13T03:12:45.715Z,63.94
2019-03-13T03:15:17.757Z,63.22
2019-03-13T03:17:49.681Z,63.51
2019-03-13T03:20:24.757Z,63.23
2019-03-13T03:22:58.281Z,63.68
2019-03-13T03:25:30.248Z,64.14
2019-03-13T03:28:03.507Z,64.16
2019-03-13T03:30:35.511Z,63.50
2019-03-13T03:33:07.485Z,63.03
2019-03-13T03:35:39.488Z,62.65
2019-03-13T03:38:11.470Z,62.16
2019-03-13T03:40:43.456Z,61.75
2019-03-13T03:43:15.426Z,62.47
2019-03-13T03:45:47.482Z,62.46
2019-03-13T03:48:19.465Z,62.89
2019-03-13T03:50:51.430Z,63.44
2019-03-13T03:53:25.179Z,64.01
2019-03-13T03:55:57.208Z,63.01
2019-03-13T03:58:30.024Z,63.33
2019-03-13T04:01:06.398Z,63.78
2019-03-13T04:03:38.401Z,63.49
2019-03-13T04:06:10.404Z,64.08
2019-03-13T04:08:42.393Z,64.35
2019-03-13T04:11:14.381Z,64.46
2019-03-13T04:13:46.326Z,64.40
2019-03-13T04:16:18.322Z,64.63
2019-03-13T04:18:50.419Z,65.09
2019-03-13T04:21:22.373Z,64.85
2019-03-13T04:23:54.384Z,64.24
2019-03-13T04:26:27.490Z,64.33
2019-03-13T04:28:59.462Z,63.96
2019-03-13T04:31:31.409Z,63.17
2019-03-13T04:34:03.377Z,62.84
2019-03-13T04:36:35.334Z,62.83
2019-03-13T04:39:07.390Z,62.88
2019-03-13T04:41:41.407Z,63.17
2019-03-13T04:44:13.390Z,62.74
2019-03-13T04:46:45.316Z,62.43
2019-03-13T04:49:17.274Z,62.32
2019-03-13T04:51:51.040Z,62.70
2019-03-13T04:54:23.004Z,63.19
2019-03-13T04:56:55.000Z,63.06
2019-03-13T04:59:26.978Z,63.48
2019-03-13T05:01:58.932Z,63.46
2019-03-13T05:04:30.926Z,63.44
2019-03-13T05:07:02.881Z,62.94
2019-03-13T05:09:38.911Z,62.70
2019-03-13T05:12:10.918Z,62.27
2019-03-13T05:14:42.951Z,61.84
2019-03-13T05:17:14.892Z,61.58
2019-03-13T05:19:46.861Z,61.92
2019-03-13T05:22:18.839Z,61.87
2019-03-13T05:24:50.831Z,62.77
2019-03-13T05:27:22.796Z,62.88
2019-03-13T05:29:56.250Z,63.07
2019-03-13T05:32:28.225Z,63.81
2019-03-13T05:35:00.298Z,64.45
2019-03-13T05:37:32.452Z,64.78
2019-03-13T05:40:04.458Z,65.47
2019-03-13T05:42:36.431Z,65.60
2019-03-13T05:45:08.635Z,66.13
2019-03-13T05:47:40.615Z,66.07
2019-03-13T05:50:12.658Z,66.17
2019-03-13T05:52:44.619Z,66.13
2019-03-13T05:55:16.621Z,65.62
2019-03-13T05:57:48.581Z,65.43
2019-03-13T06:00:21.938Z,65.44
2019-03-13T06:02:53.897Z,65.01
2019-03-13T06:05:25.886Z,65.48
2019-03-13T06:07:57.846Z,64.98
2019-03-13T06:10:32.385Z,65.13
2019-03-13T06:13:04.348Z,65.22
2019-03-13T06:15:36.367Z,65.44
2019-03-13T06:18:09.736Z,65.43
2019-03-13T06:20:42.105Z,65.11
2019-03-13T06:23:14.053Z,64.26
2019-03-13T06:25:46.041Z,64.35
2019-03-13T06:28:18.049Z,64.55
2019-03-13T06:30:50.020Z,64.54
2019-03-13T06:33:22.009Z,64.68
2019-03-13T06:35:53.993Z,64.89
2019-03-13T06:38:25.956Z,65.30
2019-03-13T06:40:57.907Z,65.92
2019-03-13T06:43:29.925Z,63.33
2019-03-13T06:46:01.876Z,61.54
2019-03-13T06:48:33.879Z,60.18
2019-03-13T06:51:05.833Z,58.81
2019-03-13T06:53:37.801Z,58.44
2019-03-13T06:56:09.776Z,59.10
2019-03-13T06:58:48.108Z,60.09
2019-03-13T07:01:41.503Z,58.21
2019-03-13T07:04:31.783Z,55.77
2019-03-13T07:07:23.401Z,54.89
2019-03-13T07:10:03.400Z,54.04
2019-03-13T07:12:43.611Z,54.18
2019-03-13T07:15:35.979Z,55.11
2019-03-13T07:18:27.574Z,56.04
2019-03-13T07:21:19.182Z,56.78
2019-03-13T07:24:10.751Z,57.22
2019-03-13T07:27:02.279Z,57.47
2019-03-13T07:29:53.832Z,57.85
2019-03-13T07:32:45.350Z,57.40
2019-03-13T07:35:36.915Z,57.19
2019-03-13T07:38:28.449Z,56.17
2019-03-13T07:41:20.029Z,54.58
2019-03-13T07:44:11.597Z,52.95
2019-03-13T07:47:03.141Z,51.24
2019-03-13T07:49:44.657Z,51.22
2019-03-13T07:52:53.207Z,50.36
2019-03-13T07:55:44.766Z,49.46
2019-03-13T07:58:21.850Z,49.96
2019-03-13T08:01:13.391Z,51.29
2019-03-13T08:03:53.333Z,51.55
2019-03-13T08:07:06.139Z,51.44
2019-03-13T08:09:57.682Z,51.67
2019-03-13T08:12:49.224Z,51.60
2019-03-13T08:15:40.782Z,52.15
2019-03-13T08:18:32.316Z,52.02
2019-03-13T08:21:23.854Z,51.91
2019-03-13T08:24:15.377Z,52.53
2019-03-13T08:27:06.913Z,52.47
2019-03-13T08:29:58.426Z,52.38
2019-03-13T08:32:49.960Z,51.51
2019-03-13T08:35:41.527Z,51.28
2019-03-13T08:38:18.268Z,51.50
2019-03-13T08:44:08.887Z,50.17
2019-03-13T08:47:00.468Z,49.44
2019-03-13T08:49:52.012Z,49.50
2019-03-13T08:52:43.554Z,48.14
2019-03-13T08:55:35.106Z,48.25
2019-03-13T08:58:26.685Z,48.54
2019-03-13T09:01:18.251Z,49.19
2019-03-13T09:04:09.814Z,48.64
2019-03-13T09:07:01.385Z,48.98
2019-03-13T09:09:52.924Z,48.60
2019-03-13T09:12:44.513Z,48.59
2019-03-13T09:15:36.059Z,48.74
2019-03-13T09:18:27.638Z,48.84
2019-03-13T09:21:19.201Z,48.67
2019-03-13T09:23:57.707Z,49.06
2019-03-13T09:26:49.236Z,48.68
2019-03-13T09:29:40.792Z,48.09
2019-03-13T09:32:32.358Z,48.32
2019-03-13T09:35:45.504Z,47.87
2019-03-13T09:38:38.360Z,47.47
2019-03-13T09:41:30.555Z,47.80
2019-03-13T09:44:22.112Z,47.33
2019-03-13T09:47:13.627Z,45.48
2019-03-13T09:50:05.192Z,45.95
2019-03-13T09:52:56.749Z,45.96
2019-03-13T09:55:44.403Z,46.38
2019-03-13T09:58:35.931Z,44.08
2019-03-13T10:01:27.576Z,43.19
2019-03-13T10:04:19.131Z,44.05
2019-03-13T10:07:10.631Z,44.20
2019-03-13T10:10:02.172Z,43.83
2019-03-13T10:12:53.729Z,43.51
2019-03-13T10:15:45.315Z,43.87
2019-03-13T10:18:36.840Z,43.66
2019-03-13T10:21:28.451Z,43.74
2019-03-13T10:24:19.997Z,44.29
2019-03-13T10:27:11.543Z,44.43
2019-03-13T10:30:03.112Z,44.53
2019-03-13T10:32:54.682Z,44.99
2019-03-13T10:35:46.278Z,45.01
2019-03-13T10:38:25.265Z,44.86
2019-03-13T10:41:16.844Z,44.66
2019-03-13T10:43:56.450Z,43.90
2019-03-13T10:47:09.276Z,43.19
2019-03-13T10:50:00.823Z,43.67
2019-03-13T10:52:52.395Z,42.88
2019-03-13T10:55:43.911Z,43.48
2019-03-13T10:58:35.469Z,43.31
2019-03-13T11:01:27.122Z,44.02
2019-03-13T11:04:18.688Z,42.89
2019-03-13T11:07:10.273Z,41.86
2019-03-13T11:10:01.831Z,42.09
2019-03-13T11:12:53.417Z,42.17
2019-03-13T11:15:44.983Z,42.19
2019-03-13T11:18:32.669Z,41.76
2019-03-13T11:21:12.636Z,42.16
2019-03-13T11:26:58.922Z,42.44
2019-03-13T11:30:11.738Z,42.20
2019-03-13T11:32:59.662Z,41.79
2019-03-13T11:35:51.203Z,41.17
2019-03-13T11:38:42.734Z,41.93
2019-03-13T11:41:34.240Z,41.49
2019-03-13T11:44:25.802Z,41.49
2019-03-13T11:47:11.607Z,40.40
2019-03-13T11:50:03.160Z,40.62
2019-03-13T11:52:54.701Z,40.83
2019-03-13T11:55:46.307Z,40.72
2019-03-13T11:58:37.821Z,40.42
2019-03-13T12:01:29.365Z,40.57
2019-03-13T12:04:20.922Z,40.40
2019-03-13T12:07:02.546Z,41.00
2019-03-13T12:09:51.394Z,41.24
2019-03-13T12:12:42.945Z,41.10
2019-03-13T12:15:34.508Z,41.55
2019-03-13T12:18:26.036Z,42.52
2019-03-13T12:21:38.983Z,42.21
2019-03-13T12:24:20.388Z,43.65
2019-03-13T12:27:10.583Z,47.41
2019-03-13T12:33:38.536Z,51.53
2019-03-13T12:36:30.190Z,50.67
2019-03-13T12:39:21.739Z,51.56
2019-03-13T12:42:34.534Z,51.98
2019-03-13T12:45:28.748Z,50.21
2019-03-13T12:48:20.310Z,48.64
2019-03-13T12:51:11.891Z,48.27
2019-03-13T12:54:03.399Z,48.13
2019-03-13T12:56:54.953Z,47.74
2019-03-13T12:59:46.480Z,46.85
2019-03-13T13:02:38.051Z,45.00
2019-03-13T13:05:29.597Z,45.61
2019-03-13T13:08:21.217Z,44.60
2019-03-13T13:11:12.815Z,44.26
2019-03-13T13:14:04.358Z,44.68
2019-03-13T13:16:55.981Z,45.44
2019-03-13T13:19:27.987Z,45.91
2019-03-13T13:21:59.984Z,44.90
2019-03-13T13:24:32.015Z,44.70
2019-03-13T13:27:04.037Z,45.89
2019-03-13T13:29:36.119Z,45.52
2019-03-13T13:32:08.290Z,44.87
2019-03-13T13:34:40.269Z,45.25
2019-03-13T13:37:12.242Z,43.76
2019-03-13T13:39:44.330Z,43.62
2019-03-13T13:42:16.358Z,44.03
2019-03-13T13:44:48.414Z,45.20
2019-03-13T13:47:20.393Z,47.32
2019-03-13T13:49:59.729Z,49.04
2019-03-13T13:53:07.130Z,51.69
2019-03-13T13:55:39.093Z,55.00
2019-03-13T13:58:11.103Z,57.97
2019-03-13T14:00:43.085Z,58.95
2019-03-13T14:03:15.113Z,62.33
2019-03-13T14:05:48.902Z,65.18
2019-03-13T14:08:20.962Z,66.22
2019-03-13T14:10:52.977Z,65.11
2019-03-13T14:13:26.105Z,63.35
2019-03-13T14:15:58.357Z,62.33
2019-03-13T14:18:30.409Z,61.16
2019-03-13T14:21:02.424Z,61.79
2019-03-13T14:23:34.642Z,61.43
2019-03-13T14:26:06.687Z,60.89
2019-03-13T14:28:38.690Z,60.39
2019-03-13T14:31:10.835Z,58.62
2019-03-13T14:33:43.948Z,58.21
2019-03-13T14:36:15.938Z,57.53
2019-03-13T14:38:48.032Z,56.05
2019-03-13T14:41:20.095Z,55.58
2019-03-13T14:43:52.098Z,54.41
2019-03-13T14:46:24.109Z,54.84
2019-03-13T14:48:56.124Z,55.00
2019-03-13T14:51:28.147Z,55.58
2019-03-13T14:54:00.175Z,55.38
2019-03-13T14:56:32.209Z,54.28
2019-03-13T14:59:04.182Z,53.70
2019-03-13T15:01:36.219Z,54.02
2019-03-13T15:04:08.238Z,53.97
2019-03-13T15:06:40.231Z,53.40
2019-03-13T15:09:12.321Z,52.37
2019-03-13T15:11:44.392Z,52.10
2019-03-13T15:14:16.434Z,51.98
2019-03-13T15:16:48.459Z,51.55
2019-03-13T15:19:20.457Z,50.17
2019-03-13T15:21:52.499Z,49.15
2019-03-13T15:24:24.510Z,48.14
2019-03-13T15:26:56.541Z,48.13
2019-03-13T15:29:28.552Z,48.21
2019-03-13T15:32:00.538Z,47.81
2019-03-13T15:34:32.522Z,48.10
2019-03-13T15:37:04.569Z,47.92
2019-03-13T15:39:36.537Z,47.94
2019-03-13T15:42:08.609Z,48.17
2019-03-13T15:44:40.609Z,48.61
2019-03-13T15:47:12.624Z,49.02
2019-03-13T15:49:44.617Z,48.99
2019-03-13T15:52:16.679Z,50.62
2019-03-13T15:54:48.613Z,50.40
2019-03-13T15:57:20.640Z,50.85
2019-03-13T15:59:52.660Z,50.69
2019-03-13T16:02:24.645Z,50.71
2019-03-13T16:04:56.675Z,51.07
2019-03-13T16:07:28.659Z,51.00
2019-03-13T16:10:03.152Z,50.86
2019-03-13T16:12:34.510Z,50.47
2019-03-13T16:15:09.170Z,50.87
2019-03-13T16:17:41.151Z,51.04
2019-03-13T16:20:13.332Z,50.86
2019-03-13T16:22:48.593Z,50.56
2019-03-13T16:25:20.704Z,50.46
2019-03-13T16:27:52.735Z,50.59
2019-03-13T16:30:25.758Z,50.17
2019-03-13T16:32:57.787Z,50.45
2019-03-13T16:35:29.828Z,50.56
2019-03-13T16:38:01.792Z,50.16
2019-03-13T16:40:33.828Z,50.21
2019-03-13T16:43:05.807Z,49.75
2019-03-13T16:45:37.885Z,49.61
2019-03-13T16:48:09.912Z,49.49
2019-03-13T16:50:41.939Z,49.57
2019-03-13T16:53:13.947Z,49.45
2019-03-13T16:55:45.968Z,49.95
2019-03-13T16:58:17.949Z,50.16
2019-03-13T17:00:50.756Z,50.51
2019-03-13T17:03:22.879Z,50.44
2019-03-13T17:05:55.026Z,50.54
2019-03-13T17:08:27.008Z,49.83
2019-03-13T17:10:59.031Z,50.18
2019-03-13T17:13:31.004Z,50.39
2019-03-13T17:16:03.058Z,50.05
2019-03-13T17:18:35.123Z,50.01
2019-03-13T17:21:07.567Z,50.16
2019-03-13T17:23:39.620Z,50.17
2019-03-13T17:26:11.699Z,50.67
2019-03-13T17:28:43.875Z,50.87
2019-03-13T17:31:15.903Z,51.04
2019-03-13T17:33:47.913Z,50.85
2019-03-13T17:36:19.927Z,51.14
2019-03-13T17:38:51.995Z,52.23
2019-03-13T17:41:23.999Z,51.34
2019-03-13T17:43:56.070Z,51.71
2019-03-13T17:46:28.102Z,51.89
2019-03-13T17:49:00.124Z,51.98
2019-03-13T17:51:32.119Z,52.20
2019-03-13T17:54:04.139Z,52.62
2019-03-13T17:56:36.205Z,52.65
2019-03-13T17:59:08.252Z,53.12
2019-03-13T18:01:40.257Z,53.12
2019-03-13T18:04:12.444Z,52.87
2019-03-13T18:06:44.487Z,53.21
2019-03-13T18:09:16.583Z,53.36
2019-03-13T18:11:48.597Z,53.74
2019-03-13T18:14:20.709Z,53.47
2019-03-13T18:16:52.794Z,53.25
2019-03-13T18:19:24.905Z,54.33
2019-03-13T18:21:56.929Z,54.26
2019-03-13T18:24:29.017Z,54.50
2019-03-13T18:27:00.986Z,55.50
2019-03-13T18:29:33.024Z,57.39
2019-03-13T18:32:05.116Z,58.83
2019-03-13T18:34:37.188Z,60.60
2019-03-13T18:37:09.206Z,61.21
2019-03-13T18:39:41.314Z,62.02
2019-03-13T18:42:13.341Z,62.60
2019-03-13T18:44:45.396Z,62.42
2019-03-13T18:47:17.499Z,63.04
2019-03-13T18:49:49.529Z,63.38
2019-03-13T18:52:21.538Z,64.43
2019-03-13T18:54:53.606Z,64.61
2019-03-13T18:57:25.602Z,63.43
2019-03-13T18:59:57.632Z,63.45
2019-03-13T19:02:29.689Z,62.09
2019-03-13T19:05:01.687Z,62.62
2019-03-13T19:07:33.729Z,61.43
2019-03-13T19:10:06.436Z,62.05
2019-03-13T19:12:38.499Z,62.72
2019-03-13T19:15:15.252Z,61.71
2019-03-13T19:17:47.696Z,61.61
2019-03-13T19:20:20.464Z,60.84
2019-03-13T19:22:52.808Z,61.52
2019-03-13T19:25:25.007Z,61.70
2019-03-13T19:27:57.143Z,61.57
2019-03-13T19:30:29.616Z,62.70
2019-03-13T19:33:02.183Z,62.58
2019-03-13T19:35:34.267Z,62.80
2019-03-13T19:38:06.669Z,63.94
2019-03-13T19:40:39.129Z,63.19
2019-03-13T19:43:11.197Z,63.85
2019-03-13T19:45:43.356Z,63.98
2019-03-13T19:48:15.431Z,64.65
2019-03-13T19:50:47.454Z,64.55
2019-03-13T19:53:19.692Z,65.04
2019-03-13T19:55:51.843Z,65.49
2019-03-13T19:58:23.924Z,65.50
2019-03-13T20:00:55.959Z,65.26
2019-03-13T20:03:28.138Z,65.31
2019-03-13T20:06:00.143Z,65.49
2019-03-13T20:08:32.238Z,65.98
2019-03-13T20:11:04.227Z,65.79
2019-03-13T20:13:36.356Z,66.20
2019-03-13T20:16:08.468Z,65.83
2019-03-13T20:18:40.585Z,66.12
2019-03-13T20:21:12.760Z,66.01
2019-03-13T20:23:44.865Z,66.22
2019-03-13T20:26:16.914Z,66.88
2019-03-13T20:28:48.942Z,66.39
2019-03-13T20:31:20.951Z,66.46
2019-03-13T20:33:53.127Z,66.92
2019-03-13T20:36:25.148Z,67.17
2019-03-13T20:38:57.207Z,67.25
2019-03-13T20:41:29.227Z,67.80
2019-03-13T20:44:01.290Z,67.87
2019-03-13T20:46:33.317Z,67.30
2019-03-13T20:49:05.407Z,67.13
2019-03-13T20:51:37.471Z,67.75
2019-03-13T20:54:09.567Z,67.84
2019-03-13T20:57:22.471Z,67.54
2019-03-13T20:59:54.527Z,67.70
2019-03-13T21:02:26.545Z,69.04
2019-03-13T21:04:58.567Z,69.63
2019-03-13T21:07:30.585Z,70.03
2019-03-13T21:10:02.871Z,71.41
2019-03-13T21:12:34.852Z,71.82
2019-03-13T21:18:07.394Z,70.63
2019-03-13T21:20:39.452Z,71.10
2019-03-13T21:23:11.464Z,71.05
2019-03-13T21:25:43.495Z,70.75
2019-03-13T21:28:15.484Z,71.15
2019-03-13T21:30:47.503Z,72.35
2019-03-13T21:33:19.626Z,74.05
2019-03-13T21:35:51.692Z,74.38
2019-03-13T21:41:36.793Z,75.87
2019-03-13T21:47:21.868Z,77.34
2019-03-13T21:49:53.942Z,78.28
2019-03-13T21:52:26.024Z,77.89
2019-03-13T21:55:17.616Z,79.46
2019-03-13T21:58:09.154Z,79.28
2019-03-13T22:00:41.194Z,81.03
2019-03-13T22:03:13.236Z,80.73
2019-03-13T22:08:58.360Z,81.02
2019-03-13T22:11:30.354Z,81.73
2019-03-13T22:14:02.425Z,81.20
2019-03-13T22:16:34.485Z,81.83
2019-03-13T22:19:06.524Z,82.16
2019-03-13T22:24:51.564Z,82.83
2019-03-13T22:27:23.578Z,83.36
2019-03-13T22:29:55.677Z,82.58
2019-03-13T22:35:27.274Z,83.36
2019-03-13T22:37:59.257Z,83.06
2019-03-13T22:40:31.281Z,82.83
2019-03-13T22:43:03.536Z,83.67
2019-03-13T22:48:57.643Z,83.40
2019-03-13T22:51:22.537Z,83.18
2019-03-13T22:53:54.569Z,83.11
2019-03-13T22:56:26.590Z,82.60
2019-03-13T22:58:58.589Z,82.99
2019-03-13T23:01:30.882Z,83.76
2019-03-13T23:04:02.948Z,84.08
2019-03-13T23:06:34.927Z,84.18
2019-03-13T23:09:10.563Z,84.27
2019-03-13T23:11:42.563Z,84.52
2019-03-13T23:14:15.646Z,83.95
2019-03-13T23:16:48.782Z,84.25
2019-03-13T23:19:20.815Z,84.30
2019-03-13T23:21:52.849Z,84.44
2019-03-13T23:24:24.873Z,84.42
2019-03-13T23:26:57.051Z,83.24
2019-03-13T23:29:29.006Z,83.36
2019-03-13T23:32:01.017Z,83.68
2019-03-13T23:34:33.523Z,83.76
2019-03-13T23:37:05.721Z,83.66
2019-03-13T23:39:37.689Z,83.63
2019-03-13T23:42:09.799Z,83.58
2019-03-13T23:44:41.752Z,84.01
2019-03-13T23:47:13.744Z,83.59
2019-03-13T23:49:45.706Z,84.17
2019-03-13T23:52:17.702Z,84.42
2019-03-13T23:54:49.690Z,84.52
2019-03-13T23:57:21.669Z,83.98
2019-03-13T23:59:53.620Z,84.03
